sensor_id;sensor_type;location;lat;lon;timestamp;temperature;humidity
78779;DHT22;68121;52.404;5.318;2023-03-23T00:01:07;12.10;74.00
78779;DHT22;68121;52.404;5.318;2023-03-23T00:03:40;12.10;73.90
78779;DHT22;68121;52.404;5.318;2023-03-23T00:06:07;12.10;73.90
78779;DHT22;68121;52.404;5.318;2023-03-23T00:08:36;12.10;73.80
78779;DHT22;68121;52.404;5.318;2023-03-23T00:11:19;12.10;73.70
78779;DHT22;68121;52.404;5.318;2023-03-23T00:13:48;12.10;73.60
78779;DHT22;68121;52.404;5.318;2023-03-23T00:16:18;12.10;73.60
78779;DHT22;68121;52.404;5.318;2023-03-23T00:21:11;12.10;73.50
78779;DHT22;68121;52.404;5.318;2023-03-23T00:23:38;12.10;73.40
78779;DHT22;68121;52.404;5.318;2023-03-23T00:26:05;12.10;73.30
78779;DHT22;68121;52.404;5.318;2023-03-23T00:28:33;12.10;73.20
78779;DHT22;68121;52.404;5.318;2023-03-23T00:31:04;12.10;73.20
78779;DHT22;68121;52.404;5.318;2023-03-23T00:33:34;12.20;73.20
78779;DHT22;68121;52.404;5.318;2023-03-23T00:36:08;12.20;73.00
78779;DHT22;68121;52.404;5.318;2023-03-23T00:38:35;12.20;73.00
78779;DHT22;68121;52.404;5.318;2023-03-23T00:41:01;12.20;73.00
78779;DHT22;68121;52.404;5.318;2023-03-23T00:43:31;12.20;72.90
78779;DHT22;68121;52.404;5.318;2023-03-23T00:45:58;12.20;72.80
78779;DHT22;68121;52.404;5.318;2023-03-23T00:48:28;12.20;72.80
78779;DHT22;68121;52.404;5.318;2023-03-23T00:50:54;12.20;72.70
78779;DHT22;68121;52.404;5.318;2023-03-23T00:53:22;12.30;72.50
78779;DHT22;68121;52.404;5.318;2023-03-23T00:55:49;12.30;72.50
78779;DHT22;68121;52.404;5.318;2023-03-23T00:58:15;12.30;72.50
78779;DHT22;68121;52.404;5.318;2023-03-23T01:00:42;12.30;72.40
78779;DHT22;68121;52.404;5.318;2023-03-23T01:03:09;12.30;72.40
78779;DHT22;68121;52.404;5.318;2023-03-23T01:05:44;12.30;72.30
78779;DHT22;68121;52.404;5.318;2023-03-23T01:08:13;12.30;72.20
78779;DHT22;68121;52.404;5.318;2023-03-23T01:10:40;12.30;72.10
78779;DHT22;68121;52.404;5.318;2023-03-23T01:13:07;12.30;72.10
78779;DHT22;68121;52.404;5.318;2023-03-23T01:15:34;12.30;72.10
78779;DHT22;68121;52.404;5.318;2023-03-23T01:18:01;12.30;72.10
78779;DHT22;68121;52.404;5.318;2023-03-23T01:20:28;12.30;72.00
78779;DHT22;68121;52.404;5.318;2023-03-23T01:22:57;12.30;72.00
78779;DHT22;68121;52.404;5.318;2023-03-23T01:25:31;12.40;71.90
78779;DHT22;68121;52.404;5.318;2023-03-23T01:27:58;12.40;71.80
78779;DHT22;68121;52.404;5.318;2023-03-23T01:30:25;12.30;71.80
78779;DHT22;68121;52.404;5.318;2023-03-23T01:32:51;12.30;71.70
78779;DHT22;68121;52.404;5.318;2023-03-23T01:35:18;12.40;71.70
78779;DHT22;68121;52.404;5.318;2023-03-23T01:37:44;12.40;71.60
78779;DHT22;68121;52.404;5.318;2023-03-23T01:40:10;12.30;71.60
78779;DHT22;68121;52.404;5.318;2023-03-23T01:42:38;12.30;71.50
78779;DHT22;68121;52.404;5.318;2023-03-23T01:47:59;12.40;71.40
78779;DHT22;68121;52.404;5.318;2023-03-23T01:50:28;12.40;71.30
78779;DHT22;68121;52.404;5.318;2023-03-23T01:52:57;12.40;71.20
78779;DHT22;68121;52.404;5.318;2023-03-23T01:55:26;12.40;71.30
78779;DHT22;68121;52.404;5.318;2023-03-23T01:57:54;12.50;71.20
78779;DHT22;68121;52.404;5.318;2023-03-23T02:00:21;12.40;71.20
78779;DHT22;68121;52.404;5.318;2023-03-23T02:02:49;12.40;71.20
78779;DHT22;68121;52.404;5.318;2023-03-23T02:05:43;12.50;71.20
78779;DHT22;68121;52.404;5.318;2023-03-23T02:08:09;12.40;71.10
78779;DHT22;68121;52.404;5.318;2023-03-23T02:10:37;12.40;71.10
78779;DHT22;68121;52.404;5.318;2023-03-23T02:13:05;12.40;71.10
78779;DHT22;68121;52.404;5.318;2023-03-23T02:15:45;12.50;71.00
78779;DHT22;68121;52.404;5.318;2023-03-23T02:18:34;12.50;71.00
78779;DHT22;68121;52.404;5.318;2023-03-23T02:21:44;12.50;70.90
78779;DHT22;68121;52.404;5.318;2023-03-23T02:24:33;12.50;70.80
78779;DHT22;68121;52.404;5.318;2023-03-23T02:27:11;12.40;70.80
78779;DHT22;68121;52.404;5.318;2023-03-23T02:34:59;12.50;70.80
78779;DHT22;68121;52.404;5.318;2023-03-23T02:37:31;12.50;70.80
78779;DHT22;68121;52.404;5.318;2023-03-23T02:40:06;12.50;70.80
78779;DHT22;68121;52.404;5.318;2023-03-23T02:42:41;12.50;70.70
78779;DHT22;68121;52.404;5.318;2023-03-23T02:45:10;12.50;70.70
78779;DHT22;68121;52.404;5.318;2023-03-23T02:47:38;12.50;70.70
78779;DHT22;68121;52.404;5.318;2023-03-23T02:50:09;12.50;70.70
78779;DHT22;68121;52.404;5.318;2023-03-23T02:52:37;12.50;70.70
78779;DHT22;68121;52.404;5.318;2023-03-23T02:55:05;12.50;70.70
78779;DHT22;68121;52.404;5.318;2023-03-23T02:57:31;12.50;70.60
78779;DHT22;68121;52.404;5.318;2023-03-23T02:59:58;12.50;70.50
78779;DHT22;68121;52.404;5.318;2023-03-23T03:02:28;12.50;70.50
78779;DHT22;68121;52.404;5.318;2023-03-23T03:10:53;12.50;70.40
78779;DHT22;68121;52.404;5.318;2023-03-23T03:18:32;12.50;70.30
78779;DHT22;68121;52.404;5.318;2023-03-23T03:21:06;12.50;70.30
78779;DHT22;68121;52.404;5.318;2023-03-23T03:23:34;12.50;70.30
78779;DHT22;68121;52.404;5.318;2023-03-23T03:26:03;12.50;70.30
78779;DHT22;68121;52.404;5.318;2023-03-23T03:28:31;12.50;70.40
78779;DHT22;68121;52.404;5.318;2023-03-23T03:31:01;12.50;70.40
78779;DHT22;68121;52.404;5.318;2023-03-23T03:33:29;12.50;70.40
78779;DHT22;68121;52.404;5.318;2023-03-23T03:35:59;12.50;70.50
78779;DHT22;68121;52.404;5.318;2023-03-23T03:38:26;12.50;70.70
78779;DHT22;68121;52.404;5.318;2023-03-23T03:40:54;12.30;70.90
78779;DHT22;68121;52.404;5.318;2023-03-23T03:43:21;12.30;71.10
78779;DHT22;68121;52.404;5.318;2023-03-23T03:45:47;12.20;71.20
78779;DHT22;68121;52.404;5.318;2023-03-23T03:48:13;12.20;71.40
78779;DHT22;68121;52.404;5.318;2023-03-23T03:50:39;12.20;71.40
78779;DHT22;68121;52.404;5.318;2023-03-23T03:53:06;12.20;71.50
78779;DHT22;68121;52.404;5.318;2023-03-23T03:55:32;12.20;71.50
78779;DHT22;68121;52.404;5.318;2023-03-23T03:58:02;12.20;71.50
78779;DHT22;68121;52.404;5.318;2023-03-23T04:00:30;12.20;71.60
78779;DHT22;68121;52.404;5.318;2023-03-23T04:02:56;12.20;71.60
78779;DHT22;68121;52.404;5.318;2023-03-23T04:05:25;12.10;71.70
78779;DHT22;68121;52.404;5.318;2023-03-23T04:07:55;12.00;72.00
78779;DHT22;68121;52.404;5.318;2023-03-23T04:10:27;11.90;72.20
78779;DHT22;68121;52.404;5.318;2023-03-23T04:12:55;11.90;72.40
78779;DHT22;68121;52.404;5.318;2023-03-23T04:15:22;11.90;72.50
78779;DHT22;68121;52.404;5.318;2023-03-23T04:17:48;11.90;72.50
78779;DHT22;68121;52.404;5.318;2023-03-23T04:20:14;11.90;72.50
78779;DHT22;68121;52.404;5.318;2023-03-23T04:22:44;11.80;72.50
78779;DHT22;68121;52.404;5.318;2023-03-23T04:25:17;11.80;72.50
78779;DHT22;68121;52.404;5.318;2023-03-23T04:27:46;11.80;72.50
78779;DHT22;68121;52.404;5.318;2023-03-23T04:30:22;11.70;72.60
78779;DHT22;68121;52.404;5.318;2023-03-23T04:32:50;11.70;72.60
78779;DHT22;68121;52.404;5.318;2023-03-23T04:35:19;11.70;72.60
78779;DHT22;68121;52.404;5.318;2023-03-23T04:37:46;11.70;72.70
78779;DHT22;68121;52.404;5.318;2023-03-23T04:40:13;11.70;72.80
78779;DHT22;68121;52.404;5.318;2023-03-23T04:42:41;11.60;72.90
78779;DHT22;68121;52.404;5.318;2023-03-23T04:45:12;11.50;72.90
78779;DHT22;68121;52.404;5.318;2023-03-23T04:47:41;11.50;73.00
78779;DHT22;68121;52.404;5.318;2023-03-23T04:50:11;11.50;73.10
78779;DHT22;68121;52.404;5.318;2023-03-23T04:52:39;11.50;73.20
78779;DHT22;68121;52.404;5.318;2023-03-23T04:55:07;11.50;73.30
78779;DHT22;68121;52.404;5.318;2023-03-23T04:57:34;11.50;73.30
78779;DHT22;68121;52.404;5.318;2023-03-23T05:00:02;11.50;73.40
78779;DHT22;68121;52.404;5.318;2023-03-23T05:02:36;11.40;73.50
78779;DHT22;68121;52.404;5.318;2023-03-23T05:05:02;11.40;73.60
78779;DHT22;68121;52.404;5.318;2023-03-23T05:07:28;11.40;73.70
78779;DHT22;68121;52.404;5.318;2023-03-23T05:09:54;11.40;73.70
78779;DHT22;68121;52.404;5.318;2023-03-23T05:12:20;11.40;73.70
78779;DHT22;68121;52.404;5.318;2023-03-23T05:14:46;11.40;73.80
78779;DHT22;68121;52.404;5.318;2023-03-23T05:17:12;11.30;73.80
78779;DHT22;68121;52.404;5.318;2023-03-23T05:19:43;11.30;73.80
78779;DHT22;68121;52.404;5.318;2023-03-23T05:22:16;11.30;73.80
78779;DHT22;68121;52.404;5.318;2023-03-23T05:24:43;11.30;73.90
78779;DHT22;68121;52.404;5.318;2023-03-23T05:27:12;11.30;73.80
78779;DHT22;68121;52.404;5.318;2023-03-23T05:29:38;11.30;73.80
78779;DHT22;68121;52.404;5.318;2023-03-23T05:32:07;11.40;73.70
78779;DHT22;68121;52.404;5.318;2023-03-23T05:34:34;11.40;73.80
78779;DHT22;68121;52.404;5.318;2023-03-23T05:37:01;11.40;73.70
78779;DHT22;68121;52.404;5.318;2023-03-23T05:39:30;11.40;73.70
78779;DHT22;68121;52.404;5.318;2023-03-23T05:41:57;11.40;73.70
78779;DHT22;68121;52.404;5.318;2023-03-23T05:44:23;11.40;73.70
78779;DHT22;68121;52.404;5.318;2023-03-23T05:46:49;11.40;73.70
78779;DHT22;68121;52.404;5.318;2023-03-23T05:49:16;11.40;73.70
78779;DHT22;68121;52.404;5.318;2023-03-23T05:51:43;11.50;73.60
78779;DHT22;68121;52.404;5.318;2023-03-23T05:54:10;11.50;73.60
78779;DHT22;68121;52.404;5.318;2023-03-23T05:56:36;11.50;73.60
78779;DHT22;68121;52.404;5.318;2023-03-23T05:59:04;11.50;73.50
78779;DHT22;68121;52.404;5.318;2023-03-23T06:01:30;11.50;73.40
78779;DHT22;68121;52.404;5.318;2023-03-23T06:03:58;11.50;73.30
78779;DHT22;68121;52.404;5.318;2023-03-23T06:06:26;11.50;73.30
78779;DHT22;68121;52.404;5.318;2023-03-23T06:08:53;11.50;73.20
78779;DHT22;68121;52.404;5.318;2023-03-23T06:11:19;11.50;73.20
78779;DHT22;68121;52.404;5.318;2023-03-23T06:13:45;11.50;73.10
78779;DHT22;68121;52.404;5.318;2023-03-23T06:16:11;11.50;73.00
78779;DHT22;68121;52.404;5.318;2023-03-23T06:18:37;11.50;73.00
78779;DHT22;68121;52.404;5.318;2023-03-23T06:21:07;11.50;72.90
78779;DHT22;68121;52.404;5.318;2023-03-23T06:23:34;11.50;72.90
78779;DHT22;68121;52.404;5.318;2023-03-23T06:26:03;11.50;72.90
78779;DHT22;68121;52.404;5.318;2023-03-23T06:28:31;11.50;72.80
78779;DHT22;68121;52.404;5.318;2023-03-23T06:31:02;11.50;72.80
78779;DHT22;68121;52.404;5.318;2023-03-23T06:33:30;11.50;72.80
78779;DHT22;68121;52.404;5.318;2023-03-23T06:35:56;11.50;72.80
78779;DHT22;68121;52.404;5.318;2023-03-23T06:38:23;11.50;72.80
78779;DHT22;68121;52.404;5.318;2023-03-23T06:40:54;11.50;72.80
78779;DHT22;68121;52.404;5.318;2023-03-23T06:43:21;11.50;72.90
78779;DHT22;68121;52.404;5.318;2023-03-23T06:45:47;11.40;72.90
78779;DHT22;68121;52.404;5.318;2023-03-23T06:48:14;11.40;72.80
78779;DHT22;68121;52.404;5.318;2023-03-23T06:50:43;11.50;72.90
78779;DHT22;68121;52.404;5.318;2023-03-23T06:53:10;11.50;72.90
78779;DHT22;68121;52.404;5.318;2023-03-23T06:55:37;11.50;72.90
78779;DHT22;68121;52.404;5.318;2023-03-23T06:58:05;11.50;72.90
78779;DHT22;68121;52.404;5.318;2023-03-23T07:00:33;11.50;72.90
78779;DHT22;68121;52.404;5.318;2023-03-23T07:02:59;11.50;72.90
78779;DHT22;68121;52.404;5.318;2023-03-23T07:05:25;11.50;72.90
78779;DHT22;68121;52.404;5.318;2023-03-23T07:07:52;11.60;72.90
78779;DHT22;68121;52.404;5.318;2023-03-23T07:10:18;11.60;72.80
78779;DHT22;68121;52.404;5.318;2023-03-23T07:12:44;11.60;72.80
78779;DHT22;68121;52.404;5.318;2023-03-23T07:15:10;11.70;72.70
78779;DHT22;68121;52.404;5.318;2023-03-23T07:17:37;11.70;72.70
78779;DHT22;68121;52.404;5.318;2023-03-23T07:20:04;11.70;72.70
78779;DHT22;68121;52.404;5.318;2023-03-23T07:22:31;11.70;72.60
78779;DHT22;68121;52.404;5.318;2023-03-23T07:24:57;11.70;72.50
78779;DHT22;68121;52.404;5.318;2023-03-23T07:27:23;11.70;72.50
78779;DHT22;68121;52.404;5.318;2023-03-23T07:29:50;11.70;72.50
78779;DHT22;68121;52.404;5.318;2023-03-23T07:32:16;11.70;72.40
78779;DHT22;68121;52.404;5.318;2023-03-23T07:34:42;11.70;72.40
78779;DHT22;68121;52.404;5.318;2023-03-23T07:37:09;11.70;72.20
78779;DHT22;68121;52.404;5.318;2023-03-23T07:39:35;11.70;72.10
78779;DHT22;68121;52.404;5.318;2023-03-23T07:42:01;11.80;72.00
78779;DHT22;68121;52.404;5.318;2023-03-23T07:44:27;11.70;71.80
78779;DHT22;68121;52.404;5.318;2023-03-23T07:46:53;11.70;71.70
78779;DHT22;68121;52.404;5.318;2023-03-23T07:49:20;11.70;71.70
78779;DHT22;68121;52.404;5.318;2023-03-23T07:51:46;11.70;71.60
78779;DHT22;68121;52.404;5.318;2023-03-23T07:54:13;11.70;71.50
78779;DHT22;68121;52.404;5.318;2023-03-23T07:56:40;11.70;71.50
78779;DHT22;68121;52.404;5.318;2023-03-23T07:59:07;11.70;71.50
78779;DHT22;68121;52.404;5.318;2023-03-23T08:01:33;11.70;71.50
78779;DHT22;68121;52.404;5.318;2023-03-23T08:04:00;11.70;71.40
78779;DHT22;68121;52.404;5.318;2023-03-23T08:06:26;11.70;71.40
78779;DHT22;68121;52.404;5.318;2023-03-23T08:08:53;11.70;71.20
78779;DHT22;68121;52.404;5.318;2023-03-23T08:11:20;11.70;71.10
78779;DHT22;68121;52.404;5.318;2023-03-23T08:13:46;11.80;71.10
78779;DHT22;68121;52.404;5.318;2023-03-23T08:16:13;11.70;71.10
78779;DHT22;68121;52.404;5.318;2023-03-23T08:18:39;11.70;71.10
78779;DHT22;68121;52.404;5.318;2023-03-23T08:21:06;11.80;71.20
78779;DHT22;68121;52.404;5.318;2023-03-23T08:23:36;12.00;71.20
78779;DHT22;68121;52.404;5.318;2023-03-23T08:26:06;12.30;70.80
78779;DHT22;68121;52.404;5.318;2023-03-23T08:28:34;12.50;70.30
78779;DHT22;68121;52.404;5.318;2023-03-23T08:31:05;12.80;70.00
78779;DHT22;68121;52.404;5.318;2023-03-23T08:33:32;13.00;69.60
78779;DHT22;68121;52.404;5.318;2023-03-23T08:36:00;13.10;69.10
78779;DHT22;68121;52.404;5.318;2023-03-23T08:38:27;13.10;68.90
78779;DHT22;68121;52.404;5.318;2023-03-23T08:41:01;13.10;68.90
78779;DHT22;68121;52.404;5.318;2023-03-23T08:43:28;13.00;68.80
78779;DHT22;68121;52.404;5.318;2023-03-23T08:45:54;12.80;68.90
78779;DHT22;68121;52.404;5.318;2023-03-23T08:48:21;12.70;68.90
78779;DHT22;68121;52.404;5.318;2023-03-23T08:50:49;12.70;69.00
78779;DHT22;68121;52.404;5.318;2023-03-23T08:53:15;12.70;69.10
78779;DHT22;68121;52.404;5.318;2023-03-23T08:55:42;12.70;69.10
78779;DHT22;68121;52.404;5.318;2023-03-23T08:58:09;12.80;68.90
78779;DHT22;68121;52.404;5.318;2023-03-23T09:00:35;12.80;68.90
78779;DHT22;68121;52.404;5.318;2023-03-23T09:03:01;12.90;68.90
78779;DHT22;68121;52.404;5.318;2023-03-23T09:05:29;13.00;68.90
78779;DHT22;68121;52.404;5.318;2023-03-23T09:07:57;13.20;68.70
78779;DHT22;68121;52.404;5.318;2023-03-23T09:10:26;13.50;68.50
78779;DHT22;68121;52.404;5.318;2023-03-23T09:12:53;13.60;68.20
78779;DHT22;68121;52.404;5.318;2023-03-23T09:15:21;13.80;67.90
78779;DHT22;68121;52.404;5.318;2023-03-23T09:17:51;13.80;67.50
78779;DHT22;68121;52.404;5.318;2023-03-23T09:20:21;13.90;67.50
78779;DHT22;68121;52.404;5.318;2023-03-23T09:22:50;14.00;67.20
78779;DHT22;68121;52.404;5.318;2023-03-23T09:25:19;14.10;67.10
78779;DHT22;68121;52.404;5.318;2023-03-23T09:27:52;14.30;66.80
78779;DHT22;68121;52.404;5.318;2023-03-23T09:30:20;14.50;66.40
78779;DHT22;68121;52.404;5.318;2023-03-23T09:32:47;14.60;65.90
78779;DHT22;68121;52.404;5.318;2023-03-23T09:35:15;14.50;65.50
78779;DHT22;68121;52.404;5.318;2023-03-23T09:37:43;14.40;65.50
78779;DHT22;68121;52.404;5.318;2023-03-23T09:40:14;14.40;65.50
78779;DHT22;68121;52.404;5.318;2023-03-23T09:43:11;14.40;65.30
78779;DHT22;68121;52.404;5.318;2023-03-23T09:45:58;14.50;65.20
78779;DHT22;68121;52.404;5.318;2023-03-23T09:51:41;14.70;64.70
78779;DHT22;68121;52.404;5.318;2023-03-23T09:54:23;14.80;64.70
78779;DHT22;68121;52.404;5.318;2023-03-23T09:56:51;15.00;64.60
78779;DHT22;68121;52.404;5.318;2023-03-23T09:59:46;15.20;64.40
78779;DHT22;68121;52.404;5.318;2023-03-23T10:02:23;15.40;64.00
78779;DHT22;68121;52.404;5.318;2023-03-23T10:04:54;15.50;63.50
78779;DHT22;68121;52.404;5.318;2023-03-23T10:07:26;15.50;63.40
78779;DHT22;68121;52.404;5.318;2023-03-23T10:09:56;15.60;63.20
78779;DHT22;68121;52.404;5.318;2023-03-23T10:15:30;15.80;62.30
78779;DHT22;68121;52.404;5.318;2023-03-23T10:21:03;15.80;61.80
78779;DHT22;68121;52.404;5.318;2023-03-23T10:23:51;15.70;61.90
78779;DHT22;68121;52.404;5.318;2023-03-23T10:29:31;15.80;61.50
78779;DHT22;68121;52.404;5.318;2023-03-23T10:32:13;15.80;61.10
78779;DHT22;68121;52.404;5.318;2023-03-23T10:34:56;15.70;60.90
78779;DHT22;68121;52.404;5.318;2023-03-23T10:39:57;15.60;61.10
78779;DHT22;68121;52.404;5.318;2023-03-23T10:42:28;15.60;60.80
78779;DHT22;68121;52.404;5.318;2023-03-23T10:44:56;15.60;60.70
78779;DHT22;68121;52.404;5.318;2023-03-23T10:47:22;15.60;60.50
78779;DHT22;68121;52.404;5.318;2023-03-23T10:49:50;15.80;60.40
78779;DHT22;68121;52.404;5.318;2023-03-23T10:54:54;15.60;60.10
78779;DHT22;68121;52.404;5.318;2023-03-23T10:57:29;15.60;60.20
78779;DHT22;68121;52.404;5.318;2023-03-23T11:00:00;15.80;60.00
78779;DHT22;68121;52.404;5.318;2023-03-23T11:02:32;15.80;59.80
78779;DHT22;68121;52.404;5.318;2023-03-23T11:05:01;15.80;59.70
78779;DHT22;68121;52.404;5.318;2023-03-23T11:07:31;15.90;59.50
78779;DHT22;68121;52.404;5.318;2023-03-23T11:10:15;15.80;59.30
78779;DHT22;68121;52.404;5.318;2023-03-23T11:12:45;15.60;59.20
78779;DHT22;68121;52.404;5.318;2023-03-23T11:15:28;15.30;59.70
78779;DHT22;68121;52.404;5.318;2023-03-23T11:18:00;15.20;59.70
78779;DHT22;68121;52.404;5.318;2023-03-23T11:20:29;15.10;59.90
78779;DHT22;68121;52.404;5.318;2023-03-23T11:22:56;15.10;59.80
78779;DHT22;68121;52.404;5.318;2023-03-23T11:25:23;15.20;59.80
78779;DHT22;68121;52.404;5.318;2023-03-23T11:27:50;15.40;60.00
78779;DHT22;68121;52.404;5.318;2023-03-23T11:30:26;15.50;59.70
78779;DHT22;68121;52.404;5.318;2023-03-23T11:32:54;15.50;59.50
78779;DHT22;68121;52.404;5.318;2023-03-23T11:35:26;15.60;59.60
78779;DHT22;68121;52.404;5.318;2023-03-23T11:37:55;15.80;59.50
78779;DHT22;68121;52.404;5.318;2023-03-23T11:40:24;16.00;59.20
78779;DHT22;68121;52.404;5.318;2023-03-23T11:43:12;16.10;58.80
78779;DHT22;68121;52.404;5.318;2023-03-23T11:48:38;16.40;58.00
78779;DHT22;68121;52.404;5.318;2023-03-23T11:53:57;16.40;57.60
78779;DHT22;68121;52.404;5.318;2023-03-23T11:56:31;16.30;57.70
78779;DHT22;68121;52.404;5.318;2023-03-23T11:58:59;16.20;57.90
78779;DHT22;68121;52.404;5.318;2023-03-23T12:01:36;16.20;58.00
78779;DHT22;68121;52.404;5.318;2023-03-23T12:26:32;15.60;58.40
78779;DHT22;68121;52.404;5.318;2023-03-23T12:41:16;15.00;58.80
78779;DHT22;68121;52.404;5.318;2023-03-23T12:49:22;14.90;58.80
78779;DHT22;68121;52.404;5.318;2023-03-23T12:57:55;14.80;59.50
78779;DHT22;68121;52.404;5.318;2023-03-23T13:00:28;14.70;59.70
78779;DHT22;68121;52.404;5.318;2023-03-23T13:03:09;14.70;60.00
78779;DHT22;68121;52.404;5.318;2023-03-23T13:05:47;14.90;60.30
78779;DHT22;68121;52.404;5.318;2023-03-23T13:08:48;15.20;60.20
78779;DHT22;68121;52.404;5.318;2023-03-23T13:11:55;15.30;59.70
78779;DHT22;68121;52.404;5.318;2023-03-23T13:23:55;14.90;60.30
78779;DHT22;68121;52.404;5.318;2023-03-23T13:26:25;14.80;60.60
78779;DHT22;68121;52.404;5.318;2023-03-23T13:32:36;14.90;60.90
78779;DHT22;68121;52.404;5.318;2023-03-23T13:35:19;15.10;60.70
78779;DHT22;68121;52.404;5.318;2023-03-23T13:38:24;15.40;59.90
78779;DHT22;68121;52.404;5.318;2023-03-23T13:41:15;15.60;59.50
78779;DHT22;68121;52.404;5.318;2023-03-23T13:43:46;15.80;59.20
78779;DHT22;68121;52.404;5.318;2023-03-23T13:46:54;15.90;58.90
78779;DHT22;68121;52.404;5.318;2023-03-23T13:49:25;16.00;58.50
78779;DHT22;68121;52.404;5.318;2023-03-23T14:06:24;15.90;58.30
78779;DHT22;68121;52.404;5.318;2023-03-23T14:11:09;15.90;58.30
78779;DHT22;68121;52.404;5.318;2023-03-23T14:16:25;16.00;58.00
78779;DHT22;68121;52.404;5.318;2023-03-23T14:18:59;16.10;57.70
78779;DHT22;68121;52.404;5.318;2023-03-23T14:21:37;16.10;57.70
78779;DHT22;68121;52.404;5.318;2023-03-23T14:24:21;16.10;57.40
78779;DHT22;68121;52.404;5.318;2023-03-23T14:26:49;16.10;57.20
78779;DHT22;68121;52.404;5.318;2023-03-23T14:29:19;16.10;57.50
78779;DHT22;68121;52.404;5.318;2023-03-23T14:31:50;16.10;57.40
78779;DHT22;68121;52.404;5.318;2023-03-23T14:34:22;16.10;57.20
78779;DHT22;68121;52.404;5.318;2023-03-23T14:36:49;16.10;57.40
78779;DHT22;68121;52.404;5.318;2023-03-23T14:41:42;16.20;57.40
78779;DHT22;68121;52.404;5.318;2023-03-23T14:44:14;16.20;57.30
78779;DHT22;68121;52.404;5.318;2023-03-23T14:46:43;16.20;57.30
78779;DHT22;68121;52.404;5.318;2023-03-23T14:49:19;16.20;57.40
78779;DHT22;68121;52.404;5.318;2023-03-23T14:51:51;16.20;57.40
78779;DHT22;68121;52.404;5.318;2023-03-23T14:54:24;16.20;57.50
78779;DHT22;68121;52.404;5.318;2023-03-23T14:56:50;16.20;57.50
78779;DHT22;68121;52.404;5.318;2023-03-23T14:59:16;16.20;57.60
78779;DHT22;68121;52.404;5.318;2023-03-23T15:01:43;16.20;57.70
78779;DHT22;68121;52.404;5.318;2023-03-23T15:04:29;16.20;57.60
78779;DHT22;68121;52.404;5.318;2023-03-23T15:06:59;16.10;57.20
78779;DHT22;68121;52.404;5.318;2023-03-23T15:09:27;16.10;57.30
78779;DHT22;68121;52.404;5.318;2023-03-23T15:12:02;16.00;57.30
78779;DHT22;68121;52.404;5.318;2023-03-23T15:14:54;16.00;57.10
78779;DHT22;68121;52.404;5.318;2023-03-23T15:17:23;15.90;56.90
78779;DHT22;68121;52.404;5.318;2023-03-23T15:19:52;15.80;57.10
78779;DHT22;68121;52.404;5.318;2023-03-23T15:22:20;15.80;56.90
78779;DHT22;68121;52.404;5.318;2023-03-23T15:24:47;15.80;56.70
78779;DHT22;68121;52.404;5.318;2023-03-23T15:27:17;15.80;56.60
78779;DHT22;68121;52.404;5.318;2023-03-23T15:29:54;15.80;56.50
78779;DHT22;68121;52.404;5.318;2023-03-23T15:32:30;15.80;56.60
78779;DHT22;68121;52.404;5.318;2023-03-23T15:34:57;15.70;56.70
78779;DHT22;68121;52.404;5.318;2023-03-23T15:37:30;15.70;56.80
78779;DHT22;68121;52.404;5.318;2023-03-23T15:39:58;15.60;56.80
78779;DHT22;68121;52.404;5.318;2023-03-23T15:48:04;15.70;57.00
78779;DHT22;68121;52.404;5.318;2023-03-23T15:52:57;15.60;57.00
78779;DHT22;68121;52.404;5.318;2023-03-23T15:55:27;15.60;57.00
78779;DHT22;68121;52.404;5.318;2023-03-23T15:57:55;15.50;57.00
78779;DHT22;68121;52.404;5.318;2023-03-23T16:00:24;15.50;57.10
78779;DHT22;68121;52.404;5.318;2023-03-23T16:02:59;15.50;57.10
78779;DHT22;68121;52.404;5.318;2023-03-23T16:05:26;15.50;57.20
78779;DHT22;68121;52.404;5.318;2023-03-23T16:07:53;15.40;57.30
78779;DHT22;68121;52.404;5.318;2023-03-23T16:10:21;15.40;57.30
78779;DHT22;68121;52.404;5.318;2023-03-23T16:12:48;15.40;57.50
78779;DHT22;68121;52.404;5.318;2023-03-23T16:15:15;15.40;57.70
78779;DHT22;68121;52.404;5.318;2023-03-23T16:17:41;15.40;57.70
78779;DHT22;68121;52.404;5.318;2023-03-23T16:20:17;15.40;57.80
78779;DHT22;68121;52.404;5.318;2023-03-23T16:22:45;15.40;57.80
78779;DHT22;68121;52.404;5.318;2023-03-23T16:25:11;15.40;57.90
78779;DHT22;68121;52.404;5.318;2023-03-23T16:27:39;15.40;58.00
78779;DHT22;68121;52.404;5.318;2023-03-23T16:30:14;15.30;58.10
78779;DHT22;68121;52.404;5.318;2023-03-23T16:32:41;15.30;58.20
78779;DHT22;68121;52.404;5.318;2023-03-23T16:35:08;15.20;58.40
78779;DHT22;68121;52.404;5.318;2023-03-23T16:37:34;15.20;58.40
78779;DHT22;68121;52.404;5.318;2023-03-23T16:40:00;15.20;58.50
78779;DHT22;68121;52.404;5.318;2023-03-23T16:42:27;15.20;58.60
78779;DHT22;68121;52.404;5.318;2023-03-23T16:44:53;15.20;58.60
78779;DHT22;68121;52.404;5.318;2023-03-23T16:47:20;15.10;58.70
78779;DHT22;68121;52.404;5.318;2023-03-23T16:49:51;15.10;58.70
78779;DHT22;68121;52.404;5.318;2023-03-23T16:52:17;15.10;58.90
78779;DHT22;68121;52.404;5.318;2023-03-23T16:54:43;15.10;58.90
78779;DHT22;68121;52.404;5.318;2023-03-23T16:57:10;15.10;59.00
78779;DHT22;68121;52.404;5.318;2023-03-23T16:59:36;15.10;59.10
78779;DHT22;68121;52.404;5.318;2023-03-23T17:02:02;15.10;59.10
78779;DHT22;68121;52.404;5.318;2023-03-23T17:04:32;15.10;59.20
78779;DHT22;68121;52.404;5.318;2023-03-23T17:06:58;15.10;59.30
78779;DHT22;68121;52.404;5.318;2023-03-23T17:09:25;15.10;59.40
78779;DHT22;68121;52.404;5.318;2023-03-23T17:11:52;15.00;59.40
78779;DHT22;68121;52.404;5.318;2023-03-23T17:14:20;15.00;59.50
78779;DHT22;68121;52.404;5.318;2023-03-23T17:16:46;15.00;59.60
78779;DHT22;68121;52.404;5.318;2023-03-23T17:19:13;15.00;59.70
78779;DHT22;68121;52.404;5.318;2023-03-23T17:21:39;15.00;59.80
78779;DHT22;68121;52.404;5.318;2023-03-23T17:24:06;15.00;59.90
78779;DHT22;68121;52.404;5.318;2023-03-23T17:26:32;15.00;60.00
78779;DHT22;68121;52.404;5.318;2023-03-23T17:28:58;15.00;60.10
78779;DHT22;68121;52.404;5.318;2023-03-23T17:31:25;15.00;60.20
78779;DHT22;68121;52.404;5.318;2023-03-23T17:33:51;15.00;60.20
78779;DHT22;68121;52.404;5.318;2023-03-23T17:36:17;15.00;60.30
78779;DHT22;68121;52.404;5.318;2023-03-23T17:38:44;15.00;60.40
78779;DHT22;68121;52.404;5.318;2023-03-23T17:41:10;15.00;60.50
78779;DHT22;68121;52.404;5.318;2023-03-23T17:43:37;14.90;60.50
78779;DHT22;68121;52.404;5.318;2023-03-23T17:46:08;14.90;60.50
78779;DHT22;68121;52.404;5.318;2023-03-23T17:48:35;14.90;60.50
78779;DHT22;68121;52.404;5.318;2023-03-23T17:51:01;14.90;60.50
78779;DHT22;68121;52.404;5.318;2023-03-23T17:53:33;14.90;60.70
78779;DHT22;68121;52.404;5.318;2023-03-23T17:56:01;14.90;60.70
78779;DHT22;68121;52.404;5.318;2023-03-23T17:58:27;14.90;60.70
78779;DHT22;68121;52.404;5.318;2023-03-23T18:00:54;14.80;60.80